sensor_id;sensor_type;location;lat;lon;timestamp;pressure;altitude;pressure_sealevel;temperature;humidity
55070;BME280;40967;52.070;8.596;2023-04-27T00:01:35;100906.47;;;5.12;78.92
55070;BME280;40967;52.070;8.596;2023-04-27T00:04:01;100911.63;;;5.14;78.94
55070;BME280;40967;52.070;8.596;2023-04-27T00:06:28;100909.53;;;5.16;79.13
55070;BME280;40967;52.070;8.596;2023-04-27T00:08:54;100908.47;;;5.17;79.13
55070;BME280;40967;52.070;8.596;2023-04-27T00:11:19;100906.63;;;5.17;78.49
55070;BME280;40967;52.070;8.596;2023-04-27T00:13:45;100907.66;;;5.16;79.09
55070;BME280;40967;52.070;8.596;2023-04-27T00:16:10;100913.03;;;5.16;78.97
55070;BME280;40967;52.070;8.596;2023-04-27T00:18:36;100915.50;;;5.18;78.57
55070;BME280;40967;52.070;8.596;2023-04-27T00:21:02;100916.31;;;5.18;79.13
55070;BME280;40967;52.070;8.596;2023-04-27T00:23:27;100911.41;;;5.15;79.48
55070;BME280;40967;52.070;8.596;2023-04-27T00:25:53;100923.00;;;5.16;79.13
55070;BME280;40967;52.070;8.596;2023-04-27T00:28:18;100908.47;;;5.17;79.06
55070;BME280;40967;52.070;8.596;2023-04-27T00:30:44;100909.09;;;5.19;79.14
55070;BME280;40967;52.070;8.596;2023-04-27T00:33:09;100910.09;;;5.18;79.34
55070;BME280;40967;52.070;8.596;2023-04-27T00:35:35;100914.91;;;5.16;78.78
55070;BME280;40967;52.070;8.596;2023-04-27T00:38:00;100909.31;;;5.17;78.78
55070;BME280;40967;52.070;8.596;2023-04-27T00:40:26;100911.41;;;5.15;78.60
55070;BME280;40967;52.070;8.596;2023-04-27T00:42:51;100907.28;;;5.13;78.61
55070;BME280;40967;52.070;8.596;2023-04-27T00:45:17;100916.63;;;5.10;78.83
55070;BME280;40967;52.070;8.596;2023-04-27T00:47:43;100910.03;;;5.06;78.93
55070;BME280;40967;52.070;8.596;2023-04-27T00:50:09;100904.91;;;5.05;78.77
55070;BME280;40967;52.070;8.596;2023-04-27T00:52:36;100916.91;;;5.02;79.07
55070;BME280;40967;52.070;8.596;2023-04-27T00:55:02;100916.34;;;5.00;79.41
55070;BME280;40967;52.070;8.596;2023-04-27T00:57:29;100918.19;;;5.00;79.10
55070;BME280;40967;52.070;8.596;2023-04-27T00:59:54;100921.91;;;4.99;79.01
55070;BME280;40967;52.070;8.596;2023-04-27T01:02:20;100914.53;;;4.94;78.99
55070;BME280;40967;52.070;8.596;2023-04-27T01:04:47;100923.19;;;4.96;78.64
55070;BME280;40967;52.070;8.596;2023-04-27T01:07:12;100927.75;;;4.96;78.58
55070;BME280;40967;52.070;8.596;2023-04-27T01:09:38;100924.69;;;4.92;78.59
55070;BME280;40967;52.070;8.596;2023-04-27T01:12:04;100932.22;;;4.84;78.91
55070;BME280;40967;52.070;8.596;2023-04-27T01:14:32;100936.56;;;4.85;78.67
55070;BME280;40967;52.070;8.596;2023-04-27T01:16:57;100932.44;;;4.82;78.84
55070;BME280;40967;52.070;8.596;2023-04-27T01:19:23;100947.34;;;4.78;79.01
55070;BME280;40967;52.070;8.596;2023-04-27T01:21:48;100942.81;;;4.79;78.75
55070;BME280;40967;52.070;8.596;2023-04-27T01:24:13;100948.19;;;4.79;78.41
55070;BME280;40967;52.070;8.596;2023-04-27T01:26:39;100943.03;;;4.77;78.60
55070;BME280;40967;52.070;8.596;2023-04-27T01:29:04;100950.03;;;4.78;78.50
55070;BME280;40967;52.070;8.596;2023-04-27T01:31:30;100953.56;;;4.79;78.76
55070;BME280;40967;52.070;8.596;2023-04-27T01:33:56;100952.34;;;4.75;78.73
55070;BME280;40967;52.070;8.596;2023-04-27T01:36:21;100956.31;;;4.72;78.65
55070;BME280;40967;52.070;8.596;2023-04-27T01:38:46;100960.25;;;4.70;79.10
55070;BME280;40967;52.070;8.596;2023-04-27T01:41:12;100959.50;;;4.62;79.18
55070;BME280;40967;52.070;8.596;2023-04-27T01:43:37;100962.63;;;4.59;79.68
55070;BME280;40967;52.070;8.596;2023-04-27T01:46:13;100970.91;;;4.58;79.78
55070;BME280;40967;52.070;8.596;2023-04-27T01:48:39;100967.84;;;4.54;80.00
55070;BME280;40967;52.070;8.596;2023-04-27T01:51:05;100966.63;;;4.50;80.58
55070;BME280;40967;52.070;8.596;2023-04-27T01:53:30;100969.53;;;4.49;80.77
55070;BME280;40967;52.070;8.596;2023-04-27T01:55:56;100973.28;;;4.48;80.15
55070;BME280;40967;52.070;8.596;2023-04-27T01:58:23;100970.41;;;4.43;79.80
55070;BME280;40967;52.070;8.596;2023-04-27T02:00:49;100980.94;;;4.44;80.14
55070;BME280;40967;52.070;8.596;2023-04-27T02:03:14;100983.63;;;4.44;79.84
55070;BME280;40967;52.070;8.596;2023-04-27T02:05:40;100989.00;;;4.44;80.12
55070;BME280;40967;52.070;8.596;2023-04-27T02:08:05;100988.19;;;4.44;79.67
55070;BME280;40967;52.070;8.596;2023-04-27T02:10:31;100990.47;;;4.40;79.54
55070;BME280;40967;52.070;8.596;2023-04-27T02:12:56;100987.84;;;4.34;79.53
55070;BME280;40967;52.070;8.596;2023-04-27T02:15:22;100990.91;;;4.37;79.83
55070;BME280;40967;52.070;8.596;2023-04-27T02:17:48;100988.44;;;4.36;79.41
55070;BME280;40967;52.070;8.596;2023-04-27T02:20:13;100992.38;;;4.33;79.47
55070;BME280;40967;52.070;8.596;2023-04-27T02:22:42;100991.16;;;4.29;79.07
55070;BME280;40967;52.070;8.596;2023-04-27T02:25:09;100990.78;;;4.26;79.41
55070;BME280;40967;52.070;8.596;2023-04-27T02:27:36;100992.50;;;4.20;79.16
55070;BME280;40967;52.070;8.596;2023-04-27T02:30:09;100991.72;;;4.13;79.48
55070;BME280;40967;52.070;8.596;2023-04-27T02:32:36;100990.47;;;4.09;79.37
55070;BME280;40967;52.070;8.596;2023-04-27T02:35:02;100983.50;;;4.02;79.42
55070;BME280;40967;52.070;8.596;2023-04-27T02:37:28;100991.97;;;3.99;79.68
55070;BME280;40967;52.070;8.596;2023-04-27T02:39:53;100995.09;;;3.96;79.68
55070;BME280;40967;52.070;8.596;2023-04-27T02:42:19;100989.34;;;3.92;79.27
55070;BME280;40967;52.070;8.596;2023-04-27T02:44:45;100991.84;;;3.87;79.44
55070;BME280;40967;52.070;8.596;2023-04-27T02:47:10;100992.69;;;3.81;79.64
55070;BME280;40967;52.070;8.596;2023-04-27T02:49:36;100992.28;;;3.78;79.16
55070;BME280;40967;52.070;8.596;2023-04-27T02:52:02;100992.72;;;3.75;79.32
55070;BME280;40967;52.070;8.596;2023-04-27T02:54:27;100990.47;;;3.72;79.87
55070;BME280;40967;52.070;8.596;2023-04-27T02:56:53;100985.34;;;3.64;79.46
55070;BME280;40967;52.070;8.596;2023-04-27T02:59:18;100987.41;;;3.62;79.58
55070;BME280;40967;52.070;8.596;2023-04-27T03:01:44;100980.22;;;3.56;79.78
55070;BME280;40967;52.070;8.596;2023-04-27T03:04:09;100985.41;;;3.51;80.04
55070;BME280;40967;52.070;8.596;2023-04-27T03:06:35;100982.13;;;3.42;79.82
55070;BME280;40967;52.070;8.596;2023-04-27T03:09:00;100988.13;;;3.37;79.77
55070;BME280;40967;52.070;8.596;2023-04-27T03:11:28;100982.97;;;3.36;80.19
55070;BME280;40967;52.070;8.596;2023-04-27T03:13:53;100983.19;;;3.34;79.85
55070;BME280;40967;52.070;8.596;2023-04-27T03:16:20;100990.00;;;3.30;79.59
55070;BME280;40967;52.070;8.596;2023-04-27T03:18:45;100991.25;;;3.28;79.56
55070;BME280;40967;52.070;8.596;2023-04-27T03:21:12;100983.03;;;3.23;79.63
55070;BME280;40967;52.070;8.596;2023-04-27T03:23:38;100979.31;;;3.17;79.56
55070;BME280;40967;52.070;8.596;2023-04-27T03:28:32;100977.06;;;3.08;80.02
55070;BME280;40967;52.070;8.596;2023-04-27T03:30:58;100972.97;;;3.05;79.86
55070;BME280;40967;52.070;8.596;2023-04-27T03:33:24;100970.66;;;3.02;79.75
55070;BME280;40967;52.070;8.596;2023-04-27T03:35:57;100969.25;;;3.00;79.13
55070;BME280;40967;52.070;8.596;2023-04-27T03:38:24;100976.06;;;2.96;79.18
55070;BME280;40967;52.070;8.596;2023-04-27T03:40:49;100978.09;;;2.94;79.13
55070;BME280;40967;52.070;8.596;2023-04-27T03:43:15;100969.88;;;2.89;79.26
55070;BME280;40967;52.070;8.596;2023-04-27T03:45:40;100970.31;;;2.86;79.30
55070;BME280;40967;52.070;8.596;2023-04-27T03:48:06;100971.53;;;2.83;79.38
55070;BME280;40967;52.070;8.596;2023-04-27T03:50:31;100971.94;;;2.80;79.39
55070;BME280;40967;52.070;8.596;2023-04-27T03:52:57;100978.97;;;2.75;79.45
55070;BME280;40967;52.070;8.596;2023-04-27T03:55:25;100972.78;;;2.68;79.14
55070;BME280;40967;52.070;8.596;2023-04-27T03:57:51;100976.72;;;2.65;79.60
55070;BME280;40967;52.070;8.596;2023-04-27T04:00:16;100973.41;;;2.63;79.35
55070;BME280;40967;52.070;8.596;2023-04-27T04:02:43;100983.09;;;2.58;79.30
55070;BME280;40967;52.070;8.596;2023-04-27T04:05:09;100982.69;;;2.54;79.82
55070;BME280;40967;52.070;8.596;2023-04-27T04:07:34;100996.06;;;2.54;79.75
55070;BME280;40967;52.070;8.596;2023-04-27T04:09:59;100988.25;;;2.53;79.89
55070;BME280;40967;52.070;8.596;2023-04-27T04:12:25;100994.66;;;2.52;79.00
55070;BME280;40967;52.070;8.596;2023-04-27T04:14:53;100995.03;;;2.49;79.26
55070;BME280;40967;52.070;8.596;2023-04-27T04:17:19;100996.50;;;2.45;79.51
55070;BME280;40967;52.070;8.596;2023-04-27T04:19:44;100999.16;;;2.38;79.10
55070;BME280;40967;52.070;8.596;2023-04-27T04:22:09;101013.56;;;2.37;78.91
55070;BME280;40967;52.070;8.596;2023-04-27T04:24:36;101006.56;;;2.29;79.25
55070;BME280;40967;52.070;8.596;2023-04-27T04:27:01;101011.91;;;2.29;79.63
55070;BME280;40967;52.070;8.596;2023-04-27T04:29:27;101009.84;;;2.25;79.47
55070;BME280;40967;52.070;8.596;2023-04-27T04:31:54;101010.28;;;2.22;79.65
55070;BME280;40967;52.070;8.596;2023-04-27T04:34:20;101012.09;;;2.15;80.09
55070;BME280;40967;52.070;8.596;2023-04-27T04:36:46;101007.75;;;2.07;79.87
55070;BME280;40967;52.070;8.596;2023-04-27T04:39:11;101007.34;;;2.10;80.64
55070;BME280;40967;52.070;8.596;2023-04-27T04:41:40;101014.34;;;2.05;80.87
55070;BME280;40967;52.070;8.596;2023-04-27T04:44:06;101020.91;;;2.02;81.60
55070;BME280;40967;52.070;8.596;2023-04-27T04:46:31;101017.19;;;1.97;81.68
55070;BME280;40967;52.070;8.596;2023-04-27T04:48:59;101026.66;;;1.93;82.40
55070;BME280;40967;52.070;8.596;2023-04-27T04:51:26;101020.06;;;1.89;82.92
55070;BME280;40967;52.070;8.596;2023-04-27T04:53:51;101013.47;;;1.85;83.21
55070;BME280;40967;52.070;8.596;2023-04-27T04:56:17;101023.53;;;1.83;84.41
55070;BME280;40967;52.070;8.596;2023-04-27T04:58:42;101024.34;;;1.83;84.56
55070;BME280;40967;52.070;8.596;2023-04-27T05:01:08;101021.06;;;1.81;84.17
55070;BME280;40967;52.070;8.596;2023-04-27T05:03:33;101025.56;;;1.81;84.59
55070;BME280;40967;52.070;8.596;2023-04-27T05:05:59;101038.78;;;1.82;84.82
55070;BME280;40967;52.070;8.596;2023-04-27T05:08:24;101037.53;;;1.85;85.11
55070;BME280;40967;52.070;8.596;2023-04-27T05:10:50;101030.97;;;1.87;84.58
55070;BME280;40967;52.070;8.596;2023-04-27T05:13:16;101023.31;;;1.84;85.03
55070;BME280;40967;52.070;8.596;2023-04-27T05:15:41;101025.22;;;1.90;84.50
55070;BME280;40967;52.070;8.596;2023-04-27T05:18:07;101025.00;;;1.92;85.23
55070;BME280;40967;52.070;8.596;2023-04-27T05:20:36;101035.28;;;1.95;84.55
55070;BME280;40967;52.070;8.596;2023-04-27T05:23:02;101038.41;;;1.98;85.02
55070;BME280;40967;52.070;8.596;2023-04-27T05:25:31;101043.38;;;2.01;85.42
55070;BME280;40967;52.070;8.596;2023-04-27T05:27:56;101038.19;;;2.00;85.96
55070;BME280;40967;52.070;8.596;2023-04-27T05:30:22;101037.81;;;2.09;86.92
55070;BME280;40967;52.070;8.596;2023-04-27T05:32:47;101039.28;;;2.12;87.34
55070;BME280;40967;52.070;8.596;2023-04-27T05:35:13;101050.22;;;2.23;88.43
55070;BME280;40967;52.070;8.596;2023-04-27T05:37:38;101044.88;;;2.30;88.50
55070;BME280;40967;52.070;8.596;2023-04-27T05:40:04;101050.03;;;2.38;88.85
55070;BME280;40967;52.070;8.596;2023-04-27T05:42:31;101049.22;;;2.51;88.80
55070;BME280;40967;52.070;8.596;2023-04-27T05:44:57;101048.84;;;2.54;88.83
55070;BME280;40967;52.070;8.596;2023-04-27T05:47:22;101052.94;;;2.63;88.40
55070;BME280;40967;52.070;8.596;2023-04-27T05:49:51;101059.97;;;2.70;88.39
55070;BME280;40967;52.070;8.596;2023-04-27T05:52:17;101069.66;;;2.78;87.99
55070;BME280;40967;52.070;8.596;2023-04-27T05:54:49;101059.34;;;2.88;88.49
55070;BME280;40967;52.070;8.596;2023-04-27T05:57:15;101053.56;;;2.97;87.62
55070;BME280;40967;52.070;8.596;2023-04-27T05:59:43;101058.75;;;3.05;87.74
55070;BME280;40967;52.070;8.596;2023-04-27T06:02:09;101072.97;;;3.12;87.69
55070;BME280;40967;52.070;8.596;2023-04-27T06:04:34;101071.72;;;3.21;88.64
55070;BME280;40967;52.070;8.596;2023-04-27T06:07:01;101070.66;;;3.29;88.55
55070;BME280;40967;52.070;8.596;2023-04-27T06:09:29;101067.56;;;3.32;88.46
55070;BME280;40967;52.070;8.596;2023-04-27T06:11:55;101079.09;;;3.45;88.77
55070;BME280;40967;52.070;8.596;2023-04-27T06:14:23;101075.56;;;3.52;88.36
55070;BME280;40967;52.070;8.596;2023-04-27T06:16:48;101067.50;;;3.58;88.17
55070;BME280;40967;52.070;8.596;2023-04-27T06:19:13;101075.75;;;3.70;88.01
55070;BME280;40967;52.070;8.596;2023-04-27T06:21:39;101073.63;;;3.78;87.90
55070;BME280;40967;52.070;8.596;2023-04-27T06:24:08;101072.78;;;3.91;87.71
55070;BME280;40967;52.070;8.596;2023-04-27T06:26:34;101077.25;;;4.10;87.17
55070;BME280;40967;52.070;8.596;2023-04-27T06:28:59;101071.16;;;4.27;86.32
55070;BME280;40967;52.070;8.596;2023-04-27T06:31:25;101066.47;;;4.47;86.00
55070;BME280;40967;52.070;8.596;2023-04-27T06:33:51;101062.41;;;4.70;84.80
55070;BME280;40967;52.070;8.596;2023-04-27T06:36:16;101059.94;;;4.93;84.14
55070;BME280;40967;52.070;8.596;2023-04-27T06:38:42;101060.97;;;5.16;82.99
55070;BME280;40967;52.070;8.596;2023-04-27T06:41:07;101065.72;;;5.39;81.62
55070;BME280;40967;52.070;8.596;2023-04-27T06:43:32;101066.50;;;5.64;80.84
55070;BME280;40967;52.070;8.596;2023-04-27T06:45:58;101064.19;;;5.86;80.06
55070;BME280;40967;52.070;8.596;2023-04-27T06:48:24;101069.25;;;6.12;80.23
55070;BME280;40967;52.070;8.596;2023-04-27T06:50:52;101064.59;;;6.48;79.47
55070;BME280;40967;52.070;8.596;2023-04-27T06:53:18;101065.75;;;6.82;77.19
55070;BME280;40967;52.070;8.596;2023-04-27T06:55:43;101062.63;;;7.20;76.17
55070;BME280;40967;52.070;8.596;2023-04-27T06:58:08;101071.31;;;7.56;74.78
55070;BME280;40967;52.070;8.596;2023-04-27T07:00:34;101078.16;;;7.98;73.00
55070;BME280;40967;52.070;8.596;2023-04-27T07:02:59;101079.63;;;8.29;71.02
55070;BME280;40967;52.070;8.596;2023-04-27T07:05:25;101072.97;;;8.48;69.19
55070;BME280;40967;52.070;8.596;2023-04-27T07:07:51;101073.81;;;8.65;67.90
55070;BME280;40967;52.070;8.596;2023-04-27T07:10:17;101075.22;;;8.84;66.78
55070;BME280;40967;52.070;8.596;2023-04-27T07:12:43;101069.50;;;9.14;66.41
55070;BME280;40967;52.070;8.596;2023-04-27T07:15:08;101068.59;;;9.42;65.35
55070;BME280;40967;52.070;8.596;2023-04-27T07:17:34;101061.72;;;9.72;64.74
55070;BME280;40967;52.070;8.596;2023-04-27T07:20:01;101070.25;;;10.02;63.37
55070;BME280;40967;52.070;8.596;2023-04-27T07:22:28;101060.88;;;10.32;63.53
55070;BME280;40967;52.070;8.596;2023-04-27T07:24:53;101061.38;;;10.55;61.60
55070;BME280;40967;52.070;8.596;2023-04-27T07:27:18;101064.53;;;10.74;60.48
55070;BME280;40967;52.070;8.596;2023-04-27T07:29:45;101058.13;;;10.85;59.08
55070;BME280;40967;52.070;8.596;2023-04-27T07:32:11;101063.44;;;11.01;58.54
55070;BME280;40967;52.070;8.596;2023-04-27T07:34:36;101065.41;;;11.11;57.78
55070;BME280;40967;52.070;8.596;2023-04-27T07:37:02;101064.44;;;11.27;57.11
55070;BME280;40967;52.070;8.596;2023-04-27T07:39:27;101053.38;;;11.38;56.83
55070;BME280;40967;52.070;8.596;2023-04-27T07:41:53;101053.81;;;11.62;56.52
55070;BME280;40967;52.070;8.596;2023-04-27T07:44:19;101048.75;;;11.76;55.76
55070;BME280;40967;52.070;8.596;2023-04-27T07:46:45;101044.47;;;11.90;55.09
55070;BME280;40967;52.070;8.596;2023-04-27T07:49:14;101053.25;;;12.12;54.36
55070;BME280;40967;52.070;8.596;2023-04-27T07:51:40;101048.97;;;12.31;53.78
55070;BME280;40967;52.070;8.596;2023-04-27T07:54:07;101047.94;;;12.52;53.17
55070;BME280;40967;52.070;8.596;2023-04-27T07:56:32;101052.59;;;12.72;52.80
55070;BME280;40967;52.070;8.596;2023-04-27T07:58:57;101046.59;;;12.80;52.71
55070;BME280;40967;52.070;8.596;2023-04-27T08:01:23;101047.19;;;13.02;51.98
55070;BME280;40967;52.070;8.596;2023-04-27T08:03:49;101050.19;;;13.20;50.90
55070;BME280;40967;52.070;8.596;2023-04-27T08:06:14;101048.22;;;13.51;50.93
55070;BME280;40967;52.070;8.596;2023-04-27T08:08:40;101053.28;;;13.93;49.71
55070;BME280;40967;52.070;8.596;2023-04-27T08:11:10;101041.44;;;14.27;48.83
55070;BME280;40967;52.070;8.596;2023-04-27T08:13:36;101040.97;;;14.59;48.29
55070;BME280;40967;52.070;8.596;2023-04-27T08:16:01;101050.88;;;14.89;47.54
55070;BME280;40967;52.070;8.596;2023-04-27T08:18:27;101047.72;;;15.05;46.76
55070;BME280;40967;52.070;8.596;2023-04-27T08:20:53;101052.59;;;15.13;46.30
55070;BME280;40967;52.070;8.596;2023-04-27T08:23:18;101052.16;;;15.30;46.52
55070;BME280;40967;52.070;8.596;2023-04-27T08:25:44;101050.84;;;15.22;45.59
55070;BME280;40967;52.070;8.596;2023-04-27T08:28:09;101043.00;;;14.77;46.75
55070;BME280;40967;52.070;8.596;2023-04-27T08:30:35;101044.44;;;15.03;46.43
55070;BME280;40967;52.070;8.596;2023-04-27T08:33:00;101052.91;;;15.40;45.03
55070;BME280;40967;52.070;8.596;2023-04-27T08:35:26;101052.59;;;15.70;43.71
55070;BME280;40967;52.070;8.596;2023-04-27T08:37:51;101037.97;;;16.04;42.76
55070;BME280;40967;52.070;8.596;2023-04-27T08:40:18;101045.84;;;16.29;42.44
55070;BME280;40967;52.070;8.596;2023-04-27T08:42:56;101044.19;;;16.51;41.81
55070;BME280;40967;52.070;8.596;2023-04-27T08:45:24;101046.09;;;16.88;41.03
55070;BME280;40967;52.070;8.596;2023-04-27T08:47:52;101038.81;;;17.29;39.88
55070;BME280;40967;52.070;8.596;2023-04-27T08:50:18;101035.25;;;17.61;39.33
55070;BME280;40967;52.070;8.596;2023-04-27T08:52:45;101035.41;;;17.37;38.59
55070;BME280;40967;52.070;8.596;2023-04-27T08:55:11;101034.28;;;17.06;39.88
55070;BME280;40967;52.070;8.596;2023-04-27T08:57:36;101033.72;;;17.23;40.15
55070;BME280;40967;52.070;8.596;2023-04-27T09:00:02;101027.31;;;17.27;39.20
55070;BME280;40967;52.070;8.596;2023-04-27T09:02:36;101030.78;;;16.87;40.24
55070;BME280;40967;52.070;8.596;2023-04-27T09:05:02;101023.00;;;16.75;39.88
55070;BME280;40967;52.070;8.596;2023-04-27T09:07:28;101025.69;;;16.62;40.59
55070;BME280;40967;52.070;8.596;2023-04-27T09:10:03;101033.53;;;16.87;39.91
55070;BME280;40967;52.070;8.596;2023-04-27T09:12:28;101029.47;;;17.30;39.65
55070;BME280;40967;52.070;8.596;2023-04-27T09:15:01;101033.94;;;17.72;38.99
55070;BME280;40967;52.070;8.596;2023-04-27T09:17:30;101038.41;;;18.08;37.99
55070;BME280;40967;52.070;8.596;2023-04-27T09:20:09;101038.69;;;18.21;37.59
55070;BME280;40967;52.070;8.596;2023-04-27T09:22:48;101032.28;;;18.25;37.34
55070;BME280;40967;52.070;8.596;2023-04-27T09:25:30;101028.03;;;17.19;37.88
55070;BME280;40967;52.070;8.596;2023-04-27T09:27:57;101028.88;;;17.01;39.00
55070;BME280;40967;52.070;8.596;2023-04-27T09:30:24;101030.22;;;17.36;39.42
55070;BME280;40967;52.070;8.596;2023-04-27T09:35:24;101031.25;;;18.48;36.56
55070;BME280;40967;52.070;8.596;2023-04-27T09:37:51;101027.88;;;18.73;36.15
55070;BME280;40967;52.070;8.596;2023-04-27T09:40:19;101026.47;;;18.76;35.95
55070;BME280;40967;52.070;8.596;2023-04-27T09:42:45;101031.66;;;18.99;35.59
55070;BME280;40967;52.070;8.596;2023-04-27T09:45:11;101018.50;;;19.18;34.89
55070;BME280;40967;52.070;8.596;2023-04-27T09:47:37;101025.97;;;19.40;34.17
55070;BME280;40967;52.070;8.596;2023-04-27T09:50:04;101022.88;;;19.42;33.37
55070;BME280;40967;52.070;8.596;2023-04-27T09:52:31;101019.69;;;19.48;33.86
55070;BME280;40967;52.070;8.596;2023-04-27T09:54:57;101017.63;;;19.62;33.71
55070;BME280;40967;52.070;8.596;2023-04-27T10:03:31;101023.44;;;20.00;32.62
55070;BME280;40967;52.070;8.596;2023-04-27T10:09:00;101009.56;;;19.66;31.38
55070;BME280;40967;52.070;8.596;2023-04-27T10:11:41;101002.69;;;19.55;31.28
55070;BME280;40967;52.070;8.596;2023-04-27T10:14:09;101008.81;;;19.43;31.88
55070;BME280;40967;52.070;8.596;2023-04-27T10:16:45;101007.19;;;19.42;31.56
55070;BME280;40967;52.070;8.596;2023-04-27T10:19:11;101003.63;;;19.42;31.72
55070;BME280;40967;52.070;8.596;2023-04-27T10:21:50;101004.66;;;19.54;31.73
55070;BME280;40967;52.070;8.596;2023-04-27T10:24:16;101010.44;;;19.44;31.07
55070;BME280;40967;52.070;8.596;2023-04-27T10:26:45;101002.88;;;19.27;31.32
55070;BME280;40967;52.070;8.596;2023-04-27T10:29:11;101002.47;;;19.12;31.49
55070;BME280;40967;52.070;8.596;2023-04-27T10:31:44;101001.25;;;19.04;31.21
55070;BME280;40967;52.070;8.596;2023-04-27T10:34:16;100996.31;;;19.15;31.22
55070;BME280;40967;52.070;8.596;2023-04-27T10:36:41;100989.50;;;19.35;31.27
55070;BME280;40967;52.070;8.596;2023-04-27T10:39:18;100995.03;;;19.43;31.05
55070;BME280;40967;52.070;8.596;2023-04-27T10:41:54;100990.84;;;19.23;31.15
55070;BME280;40967;52.070;8.596;2023-04-27T10:44:26;100988.78;;;19.29;30.97
55070;BME280;40967;52.070;8.596;2023-04-27T10:46:53;100989.53;;;19.43;30.96
55070;BME280;40967;52.070;8.596;2023-04-27T10:49:19;100973.88;;;19.52;30.83
55070;BME280;40967;52.070;8.596;2023-04-27T10:51:45;100985.44;;;19.63;31.00
55070;BME280;40967;52.070;8.596;2023-04-27T10:54:11;100981.63;;;19.50;31.26
55070;BME280;40967;52.070;8.596;2023-04-27T10:56:37;100988.00;;;19.59;31.23
55070;BME280;40967;52.070;8.596;2023-04-27T10:59:03;100979.16;;;19.79;30.96
55070;BME280;40967;52.070;8.596;2023-04-27T11:01:29;100973.06;;;19.99;30.70
55070;BME280;40967;52.070;8.596;2023-04-27T11:03:58;100970.75;;;19.84;30.76
55070;BME280;40967;52.070;8.596;2023-04-27T11:06:25;100970.91;;;19.88;30.84
55070;BME280;40967;52.070;8.596;2023-04-27T11:08:52;100972.22;;;19.82;30.72
55070;BME280;40967;52.070;8.596;2023-04-27T11:11:18;100973.91;;;20.08;30.78
55070;BME280;40967;52.070;8.596;2023-04-27T11:13:46;100958.03;;;20.22;30.32
55070;BME280;40967;52.070;8.596;2023-04-27T11:16:12;100957.41;;;20.51;30.73
55070;BME280;40967;52.070;8.596;2023-04-27T11:18:39;100953.03;;;20.59;30.07
55070;BME280;40967;52.070;8.596;2023-04-27T11:21:13;100945.38;;;20.81;29.49
55070;BME280;40967;52.070;8.596;2023-04-27T11:23:40;100945.69;;;20.80;28.85
55070;BME280;40967;52.070;8.596;2023-04-27T11:26:12;100952.00;;;20.89;28.96
55070;BME280;40967;52.070;8.596;2023-04-27T11:28:39;100951.81;;;20.94;29.62
55070;BME280;40967;52.070;8.596;2023-04-27T11:31:08;100941.56;;;21.20;29.09
55070;BME280;40967;52.070;8.596;2023-04-27T11:33:34;100931.59;;;21.36;29.05
55070;BME280;40967;52.070;8.596;2023-04-27T11:35:59;100941.53;;;21.37;28.08
55070;BME280;40967;52.070;8.596;2023-04-27T11:38:25;100941.34;;;21.42;27.94
55070;BME280;40967;52.070;8.596;2023-04-27T11:41:02;100943.88;;;21.56;28.46
55070;BME280;40967;52.070;8.596;2023-04-27T11:43:28;100943.88;;;21.56;28.37
55070;BME280;40967;52.070;8.596;2023-04-27T11:45:55;100944.38;;;21.49;27.53
55070;BME280;40967;52.070;8.596;2023-04-27T11:48:24;100937.28;;;21.39;28.02
55070;BME280;40967;52.070;8.596;2023-04-27T11:50:49;100937.13;;;21.36;28.89
55070;BME280;40967;52.070;8.596;2023-04-27T11:53:27;100931.41;;;21.41;29.08
55070;BME280;40967;52.070;8.596;2023-04-27T11:55:53;100926.00;;;21.53;27.92
55070;BME280;40967;52.070;8.596;2023-04-27T11:58:19;100928.47;;;21.46;28.17
55070;BME280;40967;52.070;8.596;2023-04-27T12:00:45;100919.44;;;21.37;28.06
55070;BME280;40967;52.070;8.596;2023-04-27T12:03:11;100933.06;;;21.42;27.38
55070;BME280;40967;52.070;8.596;2023-04-27T12:05:46;100937.78;;;21.33;27.32
55070;BME280;40967;52.070;8.596;2023-04-27T12:08:12;100941.78;;;21.44;27.14
55070;BME280;40967;52.070;8.596;2023-04-27T12:10:38;100928.22;;;20.67;27.04
55070;BME280;40967;52.070;8.596;2023-04-27T12:13:04;100938.78;;;20.48;27.91
55070;BME280;40967;52.070;8.596;2023-04-27T12:15:29;100933.56;;;20.72;27.62
55070;BME280;40967;52.070;8.596;2023-04-27T12:17:55;100932.56;;;20.77;27.07
55070;BME280;40967;52.070;8.596;2023-04-27T12:20:20;100931.09;;;20.88;27.05
55070;BME280;40967;52.070;8.596;2023-04-27T12:22:46;100931.88;;;20.97;27.56
55070;BME280;40967;52.070;8.596;2023-04-27T12:25:12;100932.09;;;20.66;27.52
55070;BME280;40967;52.070;8.596;2023-04-27T12:27:38;100921.59;;;19.52;27.69
55070;BME280;40967;52.070;8.596;2023-04-27T12:30:03;100935.50;;;18.64;28.54
55070;BME280;40967;52.070;8.596;2023-04-27T12:32:29;100933.41;;;18.61;29.40
55070;BME280;40967;52.070;8.596;2023-04-27T12:34:54;100934.88;;;18.67;29.21
55070;BME280;40967;52.070;8.596;2023-04-27T12:37:20;100920.16;;;18.27;29.39
55070;BME280;40967;52.070;8.596;2023-04-27T12:39:46;100933.69;;;17.74;29.39
55070;BME280;40967;52.070;8.596;2023-04-27T12:42:11;100924.88;;;17.77;29.90
55070;BME280;40967;52.070;8.596;2023-04-27T12:44:36;100920.56;;;17.03;28.89
55070;BME280;40967;52.070;8.596;2023-04-27T12:47:02;100923.09;;;16.17;30.55
55070;BME280;40967;52.070;8.596;2023-04-27T12:49:28;100925.53;;;16.00;31.68
55070;BME280;40967;52.070;8.596;2023-04-27T12:51:53;100928.44;;;16.41;31.95
55070;BME280;40967;52.070;8.596;2023-04-27T12:54:21;100920.06;;;17.15;31.33
55070;BME280;40967;52.070;8.596;2023-04-27T12:56:47;100920.66;;;17.93;30.73
55070;BME280;40967;52.070;8.596;2023-04-27T12:59:13;100920.28;;;17.73;29.81
55070;BME280;40967;52.070;8.596;2023-04-27T13:01:38;100920.28;;;17.46;30.73
55070;BME280;40967;52.070;8.596;2023-04-27T13:04:05;100928.44;;;17.64;30.48
55070;BME280;40967;52.070;8.596;2023-04-27T13:06:31;100916.13;;;18.11;30.62